sensor_id;sensor_type;location;lat;lon;timestamp;P1;durP1;ratioP1;P2;durP2;ratioP2
75340;SDS011;64931;47.562;18.920;2023-02-01T00:00:48;6.70;;;2.60;;
75340;SDS011;64931;47.562;18.920;2023-02-01T00:03:13;7.30;;;2.70;;
75340;SDS011;64931;47.562;18.920;2023-02-01T00:05:39;5.40;;;2.40;;
75340;SDS011;64931;47.562;18.920;2023-02-01T00:08:05;8.10;;;3.20;;
75340;SDS011;64931;47.562;18.920;2023-02-01T00:10:30;7.40;;;3.10;;
75340;SDS011;64931;47.562;18.920;2023-02-01T00:12:56;5.90;;;2.50;;
75340;SDS011;64931;47.562;18.920;2023-02-01T00:15:21;5.10;;;2.40;;
75340;SDS011;64931;47.562;18.920;2023-02-01T00:17:51;6.10;;;2.90;;
75340;SDS011;64931;47.562;18.920;2023-02-01T00:20:19;6.20;;;2.70;;
75340;SDS011;64931;47.562;18.920;2023-02-01T00:22:44;4.50;;;2.00;;
75340;SDS011;64931;47.562;18.920;2023-02-01T00:25:10;6.80;;;3.20;;
75340;SDS011;64931;47.562;18.920;2023-02-01T00:27:35;4.50;;;2.20;;
75340;SDS011;64931;47.562;18.920;2023-02-01T00:30:03;6.40;;;3.50;;
75340;SDS011;64931;47.562;18.920;2023-02-01T00:32:29;6.50;;;2.50;;
75340;SDS011;64931;47.562;18.920;2023-02-01T00:34:56;7.70;;;2.90;;
75340;SDS011;64931;47.562;18.920;2023-02-01T00:37:22;6.00;;;2.80;;
75340;SDS011;64931;47.562;18.920;2023-02-01T00:39:48;7.10;;;3.00;;
75340;SDS011;64931;47.562;18.920;2023-02-01T00:42:14;9.60;;;3.10;;
75340;SDS011;64931;47.562;18.920;2023-02-01T00:44:40;5.20;;;2.70;;
75340;SDS011;64931;47.562;18.920;2023-02-01T00:47:05;5.80;;;3.30;;
75340;SDS011;64931;47.562;18.920;2023-02-01T00:51:59;5.30;;;3.00;;
75340;SDS011;64931;47.562;18.920;2023-02-01T00:54:24;5.10;;;2.50;;
75340;SDS011;64931;47.562;18.920;2023-02-01T00:56:50;5.60;;;2.60;;
75340;SDS011;64931;47.562;18.920;2023-02-01T00:59:15;5.30;;;3.20;;
75340;SDS011;64931;47.562;18.920;2023-02-01T01:01:41;5.10;;;2.80;;
75340;SDS011;64931;47.562;18.920;2023-02-01T01:04:06;5.70;;;3.10;;
75340;SDS011;64931;47.562;18.920;2023-02-01T01:06:32;5.90;;;2.90;;
75340;SDS011;64931;47.562;18.920;2023-02-01T01:09:03;4.90;;;2.50;;
75340;SDS011;64931;47.562;18.920;2023-02-01T01:11:33;6.30;;;3.10;;
75340;SDS011;64931;47.562;18.920;2023-02-01T01:14:03;5.20;;;2.90;;
75340;SDS011;64931;47.562;18.920;2023-02-01T01:16:30;4.80;;;2.20;;
75340;SDS011;64931;47.562;18.920;2023-02-01T01:18:56;6.50;;;2.90;;
75340;SDS011;64931;47.562;18.920;2023-02-01T01:21:25;5.00;;;2.80;;
75340;SDS011;64931;47.562;18.920;2023-02-01T01:23:51;5.00;;;2.40;;
75340;SDS011;64931;47.562;18.920;2023-02-01T01:26:18;4.50;;;2.60;;
75340;SDS011;64931;47.562;18.920;2023-02-01T01:28:48;6.80;;;3.20;;
75340;SDS011;64931;47.562;18.920;2023-02-01T01:31:15;5.80;;;2.50;;
75340;SDS011;64931;47.562;18.920;2023-02-01T01:33:42;5.70;;;3.20;;
75340;SDS011;64931;47.562;18.920;2023-02-01T01:36:09;5.40;;;3.10;;
75340;SDS011;64931;47.562;18.920;2023-02-01T01:38:36;5.50;;;2.20;;
75340;SDS011;64931;47.562;18.920;2023-02-01T01:41:12;5.70;;;2.80;;
75340;SDS011;64931;47.562;18.920;2023-02-01T01:51:23;5.40;;;2.90;;
75340;SDS011;64931;47.562;18.920;2023-02-01T01:53:53;7.10;;;3.50;;
75340;SDS011;64931;47.562;18.920;2023-02-01T01:56:26;5.30;;;3.20;;
75340;SDS011;64931;47.562;18.920;2023-02-01T01:58:54;5.20;;;3.10;;
75340;SDS011;64931;47.562;18.920;2023-02-01T02:01:20;4.80;;;2.90;;
75340;SDS011;64931;47.562;18.920;2023-02-01T02:03:45;6.60;;;3.70;;
75340;SDS011;64931;47.562;18.920;2023-02-01T02:09:02;5.30;;;3.10;;
75340;SDS011;64931;47.562;18.920;2023-02-01T02:11:34;6.70;;;3.60;;
75340;SDS011;64931;47.562;18.920;2023-02-01T02:13:59;5.90;;;3.00;;
75340;SDS011;64931;47.562;18.920;2023-02-01T02:33:38;6.00;;;2.70;;
75340;SDS011;64931;47.562;18.920;2023-02-01T02:38:53;5.10;;;3.10;;
75340;SDS011;64931;47.562;18.920;2023-02-01T02:41:31;5.20;;;2.80;;
75340;SDS011;64931;47.562;18.920;2023-02-01T02:47:19;4.90;;;3.20;;
75340;SDS011;64931;47.562;18.920;2023-02-01T02:49:49;5.40;;;2.80;;
75340;SDS011;64931;47.562;18.920;2023-02-01T02:52:46;4.90;;;2.80;;
75340;SDS011;64931;47.562;18.920;2023-02-01T02:55:34;4.70;;;2.90;;
75340;SDS011;64931;47.562;18.920;2023-02-01T02:58:02;5.00;;;2.20;;
75340;SDS011;64931;47.562;18.920;2023-02-01T03:00:48;5.10;;;2.80;;
75340;SDS011;64931;47.562;18.920;2023-02-01T03:03:36;4.90;;;2.70;;
75340;SDS011;64931;47.562;18.920;2023-02-01T03:06:23;4.40;;;2.90;;
75340;SDS011;64931;47.562;18.920;2023-02-01T03:08:49;4.00;;;2.10;;
75340;SDS011;64931;47.562;18.920;2023-02-01T03:11:19;5.10;;;3.00;;
75340;SDS011;64931;47.562;18.920;2023-02-01T03:13:47;4.70;;;2.80;;
75340;SDS011;64931;47.562;18.920;2023-02-01T03:16:21;4.90;;;2.50;;
75340;SDS011;64931;47.562;18.920;2023-02-01T03:24:01;4.80;;;2.40;;
75340;SDS011;64931;47.562;18.920;2023-02-01T03:26:28;4.90;;;2.70;;
75340;SDS011;64931;47.562;18.920;2023-02-01T03:28:57;4.20;;;2.60;;
75340;SDS011;64931;47.562;18.920;2023-02-01T03:31:30;4.40;;;2.50;;
75340;SDS011;64931;47.562;18.920;2023-02-01T03:33:55;4.90;;;2.80;;
75340;SDS011;64931;47.562;18.920;2023-02-01T03:36:30;4.80;;;2.40;;
75340;SDS011;64931;47.562;18.920;2023-02-01T03:39:43;4.20;;;2.80;;
75340;SDS011;64931;47.562;18.920;2023-02-01T03:41:53;4.60;;;2.60;;
75340;SDS011;64931;47.562;18.920;2023-02-01T03:44:22;4.50;;;2.60;;
75340;SDS011;64931;47.562;18.920;2023-02-01T03:46:59;4.20;;;1.90;;
75340;SDS011;64931;47.562;18.920;2023-02-01T03:49:30;4.20;;;2.30;;
75340;SDS011;64931;47.562;18.920;2023-02-01T03:52:00;4.50;;;2.40;;
75340;SDS011;64931;47.562;18.920;2023-02-01T03:54:28;4.20;;;2.40;;
75340;SDS011;64931;47.562;18.920;2023-02-01T03:56:55;5.00;;;2.80;;
75340;SDS011;64931;47.562;18.920;2023-02-01T03:59:23;5.20;;;2.70;;
75340;SDS011;64931;47.562;18.920;2023-02-01T04:01:49;4.60;;;2.50;;
75340;SDS011;64931;47.562;18.920;2023-02-01T04:04:14;4.70;;;2.70;;
75340;SDS011;64931;47.562;18.920;2023-02-01T04:06:48;5.20;;;2.70;;
75340;SDS011;64931;47.562;18.920;2023-02-01T04:09:14;3.90;;;2.20;;
75340;SDS011;64931;47.562;18.920;2023-02-01T04:11:40;4.30;;;2.70;;
75340;SDS011;64931;47.562;18.920;2023-02-01T04:14:05;5.10;;;2.40;;
75340;SDS011;64931;47.562;18.920;2023-02-01T04:16:31;4.20;;;2.40;;
75340;SDS011;64931;47.562;18.920;2023-02-01T04:18:57;4.90;;;2.70;;
75340;SDS011;64931;47.562;18.920;2023-02-01T04:21:23;5.00;;;2.30;;
75340;SDS011;64931;47.562;18.920;2023-02-01T04:23:50;5.20;;;2.90;;
75340;SDS011;64931;47.562;18.920;2023-02-01T04:26:15;4.80;;;2.90;;
75340;SDS011;64931;47.562;18.920;2023-02-01T04:28:41;4.10;;;2.60;;
75340;SDS011;64931;47.562;18.920;2023-02-01T04:31:06;4.40;;;2.50;;
75340;SDS011;64931;47.562;18.920;2023-02-01T04:33:32;4.70;;;2.80;;
75340;SDS011;64931;47.562;18.920;2023-02-01T04:35:57;4.20;;;2.40;;
75340;SDS011;64931;47.562;18.920;2023-02-01T04:38:22;3.90;;;2.70;;
75340;SDS011;64931;47.562;18.920;2023-02-01T04:40:48;5.10;;;2.90;;
75340;SDS011;64931;47.562;18.920;2023-02-01T04:43:14;4.90;;;2.70;;
75340;SDS011;64931;47.562;18.920;2023-02-01T04:45:40;4.80;;;2.70;;
75340;SDS011;64931;47.562;18.920;2023-02-01T04:48:05;6.10;;;3.10;;
75340;SDS011;64931;47.562;18.920;2023-02-01T04:50:31;5.30;;;3.00;;
75340;SDS011;64931;47.562;18.920;2023-02-01T04:52:56;5.00;;;2.90;;
75340;SDS011;64931;47.562;18.920;2023-02-01T04:55:21;5.10;;;2.90;;
75340;SDS011;64931;47.562;18.920;2023-02-01T04:57:47;4.10;;;2.10;;
75340;SDS011;64931;47.562;18.920;2023-02-01T05:00:12;4.90;;;3.10;;
75340;SDS011;64931;47.562;18.920;2023-02-01T05:02:38;4.20;;;2.70;;
75340;SDS011;64931;47.562;18.920;2023-02-01T05:05:04;4.30;;;2.20;;
75340;SDS011;64931;47.562;18.920;2023-02-01T05:07:30;4.10;;;2.60;;
75340;SDS011;64931;47.562;18.920;2023-02-01T05:09:55;5.90;;;2.20;;
75340;SDS011;64931;47.562;18.920;2023-02-01T05:12:20;4.10;;;2.50;;
75340;SDS011;64931;47.562;18.920;2023-02-01T05:15:04;4.50;;;2.30;;
75340;SDS011;64931;47.562;18.920;2023-02-01T05:17:30;4.60;;;2.60;;
75340;SDS011;64931;47.562;18.920;2023-02-01T05:19:56;5.20;;;2.50;;
75340;SDS011;64931;47.562;18.920;2023-02-01T05:22:22;4.70;;;2.50;;
75340;SDS011;64931;47.562;18.920;2023-02-01T05:24:48;4.80;;;2.50;;
75340;SDS011;64931;47.562;18.920;2023-02-01T05:27:13;4.60;;;2.60;;
75340;SDS011;64931;47.562;18.920;2023-02-01T05:29:39;5.20;;;2.40;;
75340;SDS011;64931;47.562;18.920;2023-02-01T05:32:04;4.40;;;2.50;;
75340;SDS011;64931;47.562;18.920;2023-02-01T05:34:30;4.70;;;2.80;;
75340;SDS011;64931;47.562;18.920;2023-02-01T05:36:55;3.80;;;2.20;;
75340;SDS011;64931;47.562;18.920;2023-02-01T05:39:20;4.70;;;2.50;;
75340;SDS011;64931;47.562;18.920;2023-02-01T05:41:46;4.80;;;2.50;;
75340;SDS011;64931;47.562;18.920;2023-02-01T05:44:11;4.80;;;2.50;;
75340;SDS011;64931;47.562;18.920;2023-02-01T05:46:37;4.40;;;2.50;;
75340;SDS011;64931;47.562;18.920;2023-02-01T05:49:03;5.40;;;2.60;;
75340;SDS011;64931;47.562;18.920;2023-02-01T05:51:29;4.70;;;2.70;;
75340;SDS011;64931;47.562;18.920;2023-02-01T05:53:54;5.20;;;2.70;;
75340;SDS011;64931;47.562;18.920;2023-02-01T05:56:19;5.10;;;2.70;;
75340;SDS011;64931;47.562;18.920;2023-02-01T05:58:45;4.90;;;2.90;;
75340;SDS011;64931;47.562;18.920;2023-02-01T06:01:10;3.80;;;2.20;;
75340;SDS011;64931;47.562;18.920;2023-02-01T06:03:35;3.80;;;2.20;;
75340;SDS011;64931;47.562;18.920;2023-02-01T06:06:01;4.60;;;2.60;;
75340;SDS011;64931;47.562;18.920;2023-02-01T06:08:27;5.00;;;2.90;;
75340;SDS011;64931;47.562;18.920;2023-02-01T06:10:59;4.50;;;2.70;;
75340;SDS011;64931;47.562;18.920;2023-02-01T06:13:25;5.60;;;3.00;;
75340;SDS011;64931;47.562;18.920;2023-02-01T06:15:51;4.10;;;2.30;;
75340;SDS011;64931;47.562;18.920;2023-02-01T06:18:17;4.90;;;2.80;;
75340;SDS011;64931;47.562;18.920;2023-02-01T06:20:43;4.90;;;2.70;;
75340;SDS011;64931;47.562;18.920;2023-02-01T06:23:08;6.00;;;2.90;;
75340;SDS011;64931;47.562;18.920;2023-02-01T06:25:34;4.70;;;3.20;;
75340;SDS011;64931;47.562;18.920;2023-02-01T06:28:00;5.50;;;3.00;;
75340;SDS011;64931;47.562;18.920;2023-02-01T06:30:26;5.70;;;2.60;;
75340;SDS011;64931;47.562;18.920;2023-02-01T06:32:51;6.20;;;2.90;;
75340;SDS011;64931;47.562;18.920;2023-02-01T06:35:20;5.40;;;2.80;;
75340;SDS011;64931;47.562;18.920;2023-02-01T06:37:45;5.30;;;2.90;;
75340;SDS011;64931;47.562;18.920;2023-02-01T06:40:11;4.50;;;2.60;;
75340;SDS011;64931;47.562;18.920;2023-02-01T06:42:37;5.50;;;3.00;;
75340;SDS011;64931;47.562;18.920;2023-02-01T06:45:02;5.30;;;2.70;;
75340;SDS011;64931;47.562;18.920;2023-02-01T06:47:28;4.70;;;2.90;;
75340;SDS011;64931;47.562;18.920;2023-02-01T06:49:53;5.20;;;2.80;;
75340;SDS011;64931;47.562;18.920;2023-02-01T06:52:19;4.60;;;2.70;;
75340;SDS011;64931;47.562;18.920;2023-02-01T06:54:44;4.70;;;2.30;;
75340;SDS011;64931;47.562;18.920;2023-02-01T06:57:09;4.80;;;2.90;;
75340;SDS011;64931;47.562;18.920;2023-02-01T06:59:35;5.40;;;3.00;;
75340;SDS011;64931;47.562;18.920;2023-02-01T07:02:00;4.90;;;2.70;;
75340;SDS011;64931;47.562;18.920;2023-02-01T07:04:26;4.40;;;2.20;;
75340;SDS011;64931;47.562;18.920;2023-02-01T07:06:51;5.00;;;2.20;;
75340;SDS011;64931;47.562;18.920;2023-02-01T07:09:16;5.80;;;3.10;;
75340;SDS011;64931;47.562;18.920;2023-02-01T07:11:42;4.60;;;2.40;;
75340;SDS011;64931;47.562;18.920;2023-02-01T07:14:12;4.50;;;2.50;;
75340;SDS011;64931;47.562;18.920;2023-02-01T07:16:37;5.60;;;2.70;;
75340;SDS011;64931;47.562;18.920;2023-02-01T07:19:03;5.30;;;2.70;;
75340;SDS011;64931;47.562;18.920;2023-02-01T07:21:28;5.00;;;2.40;;
75340;SDS011;64931;47.562;18.920;2023-02-01T07:23:54;4.80;;;2.40;;
75340;SDS011;64931;47.562;18.920;2023-02-01T07:26:20;4.50;;;2.50;;
75340;SDS011;64931;47.562;18.920;2023-02-01T07:28:45;3.90;;;2.20;;
75340;SDS011;64931;47.562;18.920;2023-02-01T07:31:13;14.60;;;3.00;;
75340;SDS011;64931;47.562;18.920;2023-02-01T07:33:50;5.20;;;2.40;;
75340;SDS011;64931;47.562;18.920;2023-02-01T07:36:16;4.80;;;2.70;;
75340;SDS011;64931;47.562;18.920;2023-02-01T07:38:43;4.70;;;2.50;;
75340;SDS011;64931;47.562;18.920;2023-02-01T07:41:09;5.60;;;2.60;;
75340;SDS011;64931;47.562;18.920;2023-02-01T07:43:34;4.90;;;2.50;;
75340;SDS011;64931;47.562;18.920;2023-02-01T07:46:01;5.00;;;2.60;;
75340;SDS011;64931;47.562;18.920;2023-02-01T07:48:27;4.30;;;2.20;;
75340;SDS011;64931;47.562;18.920;2023-02-01T07:50:57;4.00;;;2.10;;
75340;SDS011;64931;47.562;18.920;2023-02-01T07:53:24;5.10;;;2.20;;
75340;SDS011;64931;47.562;18.920;2023-02-01T07:55:50;5.80;;;2.70;;
75340;SDS011;64931;47.562;18.920;2023-02-01T07:58:15;4.90;;;2.20;;
75340;SDS011;64931;47.562;18.920;2023-02-01T08:00:41;4.30;;;2.40;;
75340;SDS011;64931;47.562;18.920;2023-02-01T08:03:25;4.60;;;2.10;;
75340;SDS011;64931;47.562;18.920;2023-02-01T08:05:54;5.00;;;2.40;;
75340;SDS011;64931;47.562;18.920;2023-02-01T08:08:20;5.30;;;2.40;;
75340;SDS011;64931;47.562;18.920;2023-02-01T08:10:46;6.10;;;2.30;;
75340;SDS011;64931;47.562;18.920;2023-02-01T08:13:11;4.90;;;2.50;;
75340;SDS011;64931;47.562;18.920;2023-02-01T08:15:36;5.70;;;1.90;;
75340;SDS011;64931;47.562;18.920;2023-02-01T08:18:02;6.20;;;2.40;;
75340;SDS011;64931;47.562;18.920;2023-02-01T08:20:27;4.50;;;1.90;;
75340;SDS011;64931;47.562;18.920;2023-02-01T08:22:53;4.20;;;2.40;;
75340;SDS011;64931;47.562;18.920;2023-02-01T08:25:20;4.90;;;2.50;;
75340;SDS011;64931;47.562;18.920;2023-02-01T08:27:46;4.30;;;2.00;;
75340;SDS011;64931;47.562;18.920;2023-02-01T08:30:11;3.90;;;2.10;;
75340;SDS011;64931;47.562;18.920;2023-02-01T08:32:37;5.20;;;2.40;;
75340;SDS011;64931;47.562;18.920;2023-02-01T08:35:05;6.10;;;3.00;;
75340;SDS011;64931;47.562;18.920;2023-02-01T08:37:30;5.60;;;2.90;;
75340;SDS011;64931;47.562;18.920;2023-02-01T08:39:56;5.20;;;2.90;;
75340;SDS011;64931;47.562;18.920;2023-02-01T08:42:22;5.10;;;2.80;;
75340;SDS011;64931;47.562;18.920;2023-02-01T08:45:06;5.40;;;3.00;;
75340;SDS011;64931;47.562;18.920;2023-02-01T08:47:33;5.40;;;3.10;;
75340;SDS011;64931;47.562;18.920;2023-02-01T08:49:58;5.90;;;3.10;;
75340;SDS011;64931;47.562;18.920;2023-02-01T08:52:24;6.60;;;2.80;;
75340;SDS011;64931;47.562;18.920;2023-02-01T08:54:49;5.40;;;2.30;;
75340;SDS011;64931;47.562;18.920;2023-02-01T08:57:15;4.70;;;2.70;;
75340;SDS011;64931;47.562;18.920;2023-02-01T08:59:40;5.00;;;2.60;;
75340;SDS011;64931;47.562;18.920;2023-02-01T09:02:08;6.00;;;3.00;;
75340;SDS011;64931;47.562;18.920;2023-02-01T09:04:34;5.20;;;2.60;;
75340;SDS011;64931;47.562;18.920;2023-02-01T09:06:59;4.90;;;2.70;;
75340;SDS011;64931;47.562;18.920;2023-02-01T09:09:27;6.30;;;2.90;;
75340;SDS011;64931;47.562;18.920;2023-02-01T09:11:52;5.80;;;3.20;;
75340;SDS011;64931;47.562;18.920;2023-02-01T09:14:18;5.70;;;3.10;;
75340;SDS011;64931;47.562;18.920;2023-02-01T09:16:43;5.80;;;2.70;;
75340;SDS011;64931;47.562;18.920;2023-02-01T09:19:09;6.10;;;3.10;;
75340;SDS011;64931;47.562;18.920;2023-02-01T09:21:34;5.50;;;2.80;;
75340;SDS011;64931;47.562;18.920;2023-02-01T09:24:00;6.20;;;2.80;;
75340;SDS011;64931;47.562;18.920;2023-02-01T09:26:25;7.00;;;3.50;;
75340;SDS011;64931;47.562;18.920;2023-02-01T09:28:51;6.80;;;3.70;;
75340;SDS011;64931;47.562;18.920;2023-02-01T09:31:16;5.70;;;3.10;;
75340;SDS011;64931;47.562;18.920;2023-02-01T09:33:42;5.80;;;3.60;;
75340;SDS011;64931;47.562;18.920;2023-02-01T09:36:07;6.70;;;3.30;;
75340;SDS011;64931;47.562;18.920;2023-02-01T09:38:33;6.20;;;3.30;;
75340;SDS011;64931;47.562;18.920;2023-02-01T09:40:59;5.10;;;2.80;;
75340;SDS011;64931;47.562;18.920;2023-02-01T09:46:24;6.90;;;3.60;;
75340;SDS011;64931;47.562;18.920;2023-02-01T09:48:53;6.20;;;2.80;;
75340;SDS011;64931;47.562;18.920;2023-02-01T09:51:23;7.30;;;3.50;;
75340;SDS011;64931;47.562;18.920;2023-02-01T09:54:11;5.50;;;3.20;;
75340;SDS011;64931;47.562;18.920;2023-02-01T09:56:45;6.10;;;4.20;;
75340;SDS011;64931;47.562;18.920;2023-02-01T09:59:36;7.10;;;3.70;;
75340;SDS011;64931;47.562;18.920;2023-02-01T10:02:08;6.60;;;3.90;;
75340;SDS011;64931;47.562;18.920;2023-02-01T10:04:37;6.40;;;3.50;;
75340;SDS011;64931;47.562;18.920;2023-02-01T10:07:12;7.10;;;3.40;;
75340;SDS011;64931;47.562;18.920;2023-02-01T10:12:41;6.40;;;3.80;;
75340;SDS011;64931;47.562;18.920;2023-02-01T10:15:22;5.20;;;3.20;;
75340;SDS011;64931;47.562;18.920;2023-02-01T10:18:00;5.20;;;2.60;;
75340;SDS011;64931;47.562;18.920;2023-02-01T10:28:46;5.40;;;2.50;;
75340;SDS011;64931;47.562;18.920;2023-02-01T10:31:21;5.20;;;2.40;;
75340;SDS011;64931;47.562;18.920;2023-02-01T10:33:59;4.80;;;2.80;;
75340;SDS011;64931;47.562;18.920;2023-02-01T10:36:31;6.40;;;3.20;;
75340;SDS011;64931;47.562;18.920;2023-02-01T10:39:00;5.70;;;2.70;;
75340;SDS011;64931;47.562;18.920;2023-02-01T10:41:34;5.90;;;2.60;;
75340;SDS011;64931;47.562;18.920;2023-02-01T10:44:02;4.30;;;2.50;;
75340;SDS011;64931;47.562;18.920;2023-02-01T10:46:30;5.90;;;2.90;;
75340;SDS011;64931;47.562;18.920;2023-02-01T10:48:56;6.10;;;3.10;;
75340;SDS011;64931;47.562;18.920;2023-02-01T10:56:45;5.50;;;3.30;;
75340;SDS011;64931;47.562;18.920;2023-02-01T10:59:16;5.80;;;3.30;;
75340;SDS011;64931;47.562;18.920;2023-02-01T11:01:44;8.50;;;3.60;;
75340;SDS011;64931;47.562;18.920;2023-02-01T11:04:14;6.90;;;4.10;;
75340;SDS011;64931;47.562;18.920;2023-02-01T11:06:45;6.60;;;3.80;;
75340;SDS011;64931;47.562;18.920;2023-02-01T11:09:16;7.50;;;4.20;;
75340;SDS011;64931;47.562;18.920;2023-02-01T11:14:15;6.50;;;4.50;;
75340;SDS011;64931;47.562;18.920;2023-02-01T11:16:53;7.00;;;4.30;;
75340;SDS011;64931;47.562;18.920;2023-02-01T11:19:20;6.70;;;4.40;;
75340;SDS011;64931;47.562;18.920;2023-02-01T11:21:52;7.70;;;4.60;;
75340;SDS011;64931;47.562;18.920;2023-02-01T11:24:27;7.10;;;3.60;;
75340;SDS011;64931;47.562;18.920;2023-02-01T11:26:58;8.20;;;4.40;;
75340;SDS011;64931;47.562;18.920;2023-02-01T11:29:25;9.40;;;5.30;;
75340;SDS011;64931;47.562;18.920;2023-02-01T11:31:58;8.40;;;5.90;;
75340;SDS011;64931;47.562;18.920;2023-02-01T11:34:25;9.20;;;6.00;;
75340;SDS011;64931;47.562;18.920;2023-02-01T11:36:58;8.10;;;4.70;;
75340;SDS011;64931;47.562;18.920;2023-02-01T11:39:26;7.00;;;3.60;;
75340;SDS011;64931;47.562;18.920;2023-02-01T11:44:37;9.80;;;5.50;;
75340;SDS011;64931;47.562;18.920;2023-02-01T11:47:21;8.70;;;5.60;;
75340;SDS011;64931;47.562;18.920;2023-02-01T11:49:58;10.00;;;6.50;;
75340;SDS011;64931;47.562;18.920;2023-02-01T11:57:57;9.80;;;5.80;;
75340;SDS011;64931;47.562;18.920;2023-02-01T12:14:24;8.70;;;5.60;;
75340;SDS011;64931;47.562;18.920;2023-02-01T12:22:08;8.40;;;5.30;;
75340;SDS011;64931;47.562;18.920;2023-02-01T12:25:10;12.10;;;7.10;;
75340;SDS011;64931;47.562;18.920;2023-02-01T12:36:27;8.10;;;4.60;;
75340;SDS011;64931;47.562;18.920;2023-02-01T12:41:51;7.10;;;4.90;;
75340;SDS011;64931;47.562;18.920;2023-02-01T12:44:24;7.80;;;4.90;;
75340;SDS011;64931;47.562;18.920;2023-02-01T12:46:55;7.60;;;4.80;;
75340;SDS011;64931;47.562;18.920;2023-02-01T12:49:34;7.40;;;4.30;;
75340;SDS011;64931;47.562;18.920;2023-02-01T12:52:09;7.00;;;3.80;;
75340;SDS011;64931;47.562;18.920;2023-02-01T12:54:40;5.70;;;3.30;;
75340;SDS011;64931;47.562;18.920;2023-02-01T12:57:16;6.90;;;3.90;;
75340;SDS011;64931;47.562;18.920;2023-02-01T12:59:52;6.40;;;4.10;;
75340;SDS011;64931;47.562;18.920;2023-02-01T13:02:33;7.30;;;4.10;;
75340;SDS011;64931;47.562;18.920;2023-02-01T13:07:46;5.10;;;2.90;;
75340;SDS011;64931;47.562;18.920;2023-02-01T13:15:30;7.00;;;3.40;;
75340;SDS011;64931;47.562;18.920;2023-02-01T13:18:00;6.40;;;3.40;;
75340;SDS011;64931;47.562;18.920;2023-02-01T13:23:37;6.00;;;3.40;;
75340;SDS011;64931;47.562;18.920;2023-02-01T13:25:56;5.30;;;3.10;;
75340;SDS011;64931;47.562;18.920;2023-02-01T13:28:32;6.10;;;3.90;;
75340;SDS011;64931;47.562;18.920;2023-02-01T13:41:52;5.10;;;2.60;;
75340;SDS011;64931;47.562;18.920;2023-02-01T13:44:38;6.70;;;4.20;;
75340;SDS011;64931;47.562;18.920;2023-02-01T13:47:26;10.70;;;7.10;;
75340;SDS011;64931;47.562;18.920;2023-02-01T13:49:54;8.10;;;5.50;;
75340;SDS011;64931;47.562;18.920;2023-02-01T13:52:36;21.10;;;15.70;;
75340;SDS011;64931;47.562;18.920;2023-02-01T13:57:38;9.70;;;6.00;;
75340;SDS011;64931;47.562;18.920;2023-02-01T14:00:07;8.20;;;5.70;;
75340;SDS011;64931;47.562;18.920;2023-02-01T14:05:03;11.70;;;7.10;;
75340;SDS011;64931;47.562;18.920;2023-02-01T14:23:41;6.00;;;3.10;;
75340;SDS011;64931;47.562;18.920;2023-02-01T14:26:08;7.50;;;4.00;;
75340;SDS011;64931;47.562;18.920;2023-02-01T14:31:13;5.40;;;2.50;;
75340;SDS011;64931;47.562;18.920;2023-02-01T14:33:41;10.40;;;8.30;;
75340;SDS011;64931;47.562;18.920;2023-02-01T14:36:09;6.10;;;3.60;;
75340;SDS011;64931;47.562;18.920;2023-02-01T14:38:37;4.60;;;2.00;;
75340;SDS011;64931;47.562;18.920;2023-02-01T14:41:37;5.40;;;1.80;;
75340;SDS011;64931;47.562;18.920;2023-02-01T14:49:42;5.80;;;2.10;;
75340;SDS011;64931;47.562;18.920;2023-02-01T14:52:37;5.60;;;2.70;;
75340;SDS011;64931;47.562;18.920;2023-02-01T14:55:25;5.20;;;2.60;;
75340;SDS011;64931;47.562;18.920;2023-02-01T14:57:52;5.00;;;2.20;;
75340;SDS011;64931;47.562;18.920;2023-02-01T15:02:45;6.20;;;2.50;;
75340;SDS011;64931;47.562;18.920;2023-02-01T15:05:28;4.60;;;1.90;;
75340;SDS011;64931;47.562;18.920;2023-02-01T15:11:01;4.40;;;2.20;;
75340;SDS011;64931;47.562;18.920;2023-02-01T15:13:31;4.60;;;2.10;;
75340;SDS011;64931;47.562;18.920;2023-02-01T15:18:38;5.00;;;2.60;;
75340;SDS011;64931;47.562;18.920;2023-02-01T15:21:04;4.80;;;2.50;;
75340;SDS011;64931;47.562;18.920;2023-02-01T15:23:31;4.90;;;2.00;;
75340;SDS011;64931;47.562;18.920;2023-02-01T15:26:00;5.20;;;2.10;;
75340;SDS011;64931;47.562;18.920;2023-02-01T15:28:26;5.20;;;1.80;;
75340;SDS011;64931;47.562;18.920;2023-02-01T15:30:56;5.80;;;2.00;;
75340;SDS011;64931;47.562;18.920;2023-02-01T15:33:25;3.90;;;1.50;;
75340;SDS011;64931;47.562;18.920;2023-02-01T15:38:37;5.20;;;1.30;;
75340;SDS011;64931;47.562;18.920;2023-02-01T15:41:18;3.00;;;1.20;;
75340;SDS011;64931;47.562;18.920;2023-02-01T15:46:25;4.10;;;1.60;;
75340;SDS011;64931;47.562;18.920;2023-02-01T15:48:54;4.50;;;1.30;;
75340;SDS011;64931;47.562;18.920;2023-02-01T15:51:21;4.90;;;1.40;;
75340;SDS011;64931;47.562;18.920;2023-02-01T15:53:49;3.50;;;1.20;;
75340;SDS011;64931;47.562;18.920;2023-02-01T15:56:24;3.60;;;1.60;;
75340;SDS011;64931;47.562;18.920;2023-02-01T15:58:52;3.40;;;1.40;;
75340;SDS011;64931;47.562;18.920;2023-02-01T16:01:20;6.10;;;1.60;;
75340;SDS011;64931;47.562;18.920;2023-02-01T16:03:46;6.40;;;1.70;;
75340;SDS011;64931;47.562;18.920;2023-02-01T16:08:55;5.60;;;1.80;;
75340;SDS011;64931;47.562;18.920;2023-02-01T16:14:23;5.80;;;1.70;;
75340;SDS011;64931;47.562;18.920;2023-02-01T16:16:50;4.70;;;2.10;;
75340;SDS011;64931;47.562;18.920;2023-02-01T16:19:15;5.40;;;2.10;;
75340;SDS011;64931;47.562;18.920;2023-02-01T16:21:41;6.50;;;2.20;;
75340;SDS011;64931;47.562;18.920;2023-02-01T16:24:06;6.10;;;2.90;;
75340;SDS011;64931;47.562;18.920;2023-02-01T16:26:32;3.80;;;1.60;;
75340;SDS011;64931;47.562;18.920;2023-02-01T16:28:59;4.90;;;2.00;;
75340;SDS011;64931;47.562;18.920;2023-02-01T16:31:30;6.20;;;2.50;;
75340;SDS011;64931;47.562;18.920;2023-02-01T16:33:56;5.70;;;3.10;;
75340;SDS011;64931;47.562;18.920;2023-02-01T16:36:22;3.70;;;1.50;;
75340;SDS011;64931;47.562;18.920;2023-02-01T16:38:47;4.30;;;1.50;;
75340;SDS011;64931;47.562;18.920;2023-02-01T16:41:15;3.80;;;1.60;;
75340;SDS011;64931;47.562;18.920;2023-02-01T16:43:42;7.00;;;2.00;;
75340;SDS011;64931;47.562;18.920;2023-02-01T16:46:11;5.70;;;1.70;;
75340;SDS011;64931;47.562;18.920;2023-02-01T16:48:40;6.00;;;1.90;;
75340;SDS011;64931;47.562;18.920;2023-02-01T16:51:11;4.20;;;1.50;;
75340;SDS011;64931;47.562;18.920;2023-02-01T16:53:39;5.20;;;2.10;;
75340;SDS011;64931;47.562;18.920;2023-02-01T16:56:28;5.70;;;1.90;;
75340;SDS011;64931;47.562;18.920;2023-02-01T16:58:54;4.50;;;2.10;;
75340;SDS011;64931;47.562;18.920;2023-02-01T17:01:19;6.20;;;2.70;;
75340;SDS011;64931;47.562;18.920;2023-02-01T17:03:46;5.70;;;2.60;;
75340;SDS011;64931;47.562;18.920;2023-02-01T17:06:12;5.00;;;2.50;;
75340;SDS011;64931;47.562;18.920;2023-02-01T17:08:44;4.70;;;2.30;;
75340;SDS011;64931;47.562;18.920;2023-02-01T17:11:11;4.90;;;2.30;;
75340;SDS011;64931;47.562;18.920;2023-02-01T17:13:38;5.80;;;2.60;;
75340;SDS011;64931;47.562;18.920;2023-02-01T17:16:19;5.60;;;2.30;;
75340;SDS011;64931;47.562;18.920;2023-02-01T17:18:53;5.50;;;2.60;;
75340;SDS011;64931;47.562;18.920;2023-02-01T17:21:23;5.10;;;2.20;;
75340;SDS011;64931;47.562;18.920;2023-02-01T17:23:49;5.60;;;2.80;;
75340;SDS011;64931;47.562;18.920;2023-02-01T17:26:15;5.90;;;2.70;;
75340;SDS011;64931;47.562;18.920;2023-02-01T17:28:40;6.40;;;2.30;;
75340;SDS011;64931;47.562;18.920;2023-02-01T17:31:06;4.60;;;2.10;;
75340;SDS011;64931;47.562;18.920;2023-02-01T17:33:35;5.50;;;2.50;;
75340;SDS011;64931;47.562;18.920;2023-02-01T17:36:01;4.40;;;2.10;;